createdAt,value
2018-09-14T00:00:34.979Z,16.50
2018-09-14T00:03:04.106Z,16.40
2018-09-14T00:05:32.682Z,16.30
2018-09-14T00:08:01.211Z,16.30
2018-09-14T00:10:29.740Z,16.30
2018-09-14T00:12:58.232Z,16.30
2018-09-14T00:15:26.774Z,16.20
2018-09-14T00:17:55.232Z,16.20
2018-09-14T00:20:23.743Z,16.10
2018-09-14T00:22:52.420Z,16.00
2018-09-14T00:25:20.925Z,16.00
2018-09-14T00:27:49.451Z,16.00
2018-09-14T00:30:18.032Z,16.00
2018-09-14T00:32:46.518Z,15.90
2018-09-14T00:35:15.055Z,15.90
2018-09-14T00:37:43.573Z,15.90
2018-09-14T00:40:12.095Z,15.90
2018-09-14T00:42:40.586Z,15.80
2018-09-14T00:45:09.135Z,15.80
2018-09-14T00:47:37.628Z,15.80
2018-09-14T00:50:06.203Z,15.80
2018-09-14T00:52:34.687Z,15.80
2018-09-14T00:55:03.164Z,15.80
2018-09-14T00:57:31.736Z,15.70
2018-09-14T01:00:00.227Z,15.70
2018-09-14T01:02:28.696Z,15.70
2018-09-14T01:04:57.187Z,15.70
2018-09-14T01:07:25.743Z,15.70
2018-09-14T01:09:54.252Z,15.70
2018-09-14T01:12:22.740Z,15.70
2018-09-14T01:14:51.267Z,15.60
2018-09-14T01:17:19.842Z,15.60
2018-09-14T01:19:48.303Z,15.60
2018-09-14T01:22:16.808Z,15.60
2018-09-14T01:24:45.319Z,15.50
2018-09-14T01:27:13.823Z,15.50
2018-09-14T01:29:42.329Z,15.50
2018-09-14T01:32:10.796Z,15.50
2018-09-14T01:34:39.338Z,15.40
2018-09-14T01:37:07.858Z,15.40
2018-09-14T01:39:36.382Z,15.40
2018-09-14T01:42:04.916Z,15.40
2018-09-14T01:44:33.454Z,15.30
2018-09-14T01:47:01.976Z,15.30
2018-09-14T01:49:30.504Z,15.30
2018-09-14T01:51:59.006Z,15.20
2018-09-14T01:54:27.538Z,15.20
2018-09-14T01:56:56.044Z,15.10
2018-09-14T01:59:24.616Z,15.10
2018-09-14T02:01:53.122Z,15.00
2018-09-14T02:04:21.731Z,15.00
2018-09-14T02:06:50.286Z,15.00
2018-09-14T02:09:18.803Z,14.90
2018-09-14T02:11:47.358Z,14.90
2018-09-14T02:14:15.880Z,14.90
2018-09-14T02:16:44.457Z,14.80
2018-09-14T02:19:13.003Z,14.80
2018-09-14T02:21:41.552Z,14.80
2018-09-14T02:24:10.058Z,14.80
2018-09-14T02:26:38.587Z,14.80
2018-09-14T02:29:07.129Z,14.70
2018-09-14T02:31:35.658Z,14.70
2018-09-14T02:34:04.188Z,14.70
2018-09-14T02:36:32.701Z,14.70
2018-09-14T02:39:01.227Z,14.70
2018-09-14T02:41:29.731Z,14.60
2018-09-14T02:43:58.235Z,14.60
2018-09-14T02:46:26.778Z,14.60
2018-09-14T02:48:55.295Z,14.60
2018-09-14T02:51:23.856Z,14.50
2018-09-14T02:53:52.408Z,14.50
2018-09-14T02:56:20.931Z,14.50
2018-09-14T02:58:49.450Z,14.50
2018-09-14T03:01:17.995Z,14.50
2018-09-14T03:03:46.647Z,14.50
2018-09-14T03:06:15.185Z,14.50
2018-09-14T03:08:43.720Z,14.50
2018-09-14T03:11:12.239Z,14.50
2018-09-14T03:13:40.756Z,14.40
2018-09-14T03:16:09.279Z,14.50
2018-09-14T03:18:37.775Z,14.50
2018-09-14T03:21:06.293Z,14.50
2018-09-14T03:23:34.774Z,14.50
2018-09-14T03:26:03.292Z,14.50
2018-09-14T03:28:31.808Z,14.50
2018-09-14T03:31:00.292Z,14.50
2018-09-14T03:33:28.844Z,14.50
2018-09-14T03:35:57.407Z,14.50
2018-09-14T03:38:25.982Z,14.50
2018-09-14T03:40:54.523Z,14.50
2018-09-14T03:43:23.200Z,14.50
2018-09-14T03:45:51.741Z,14.50
2018-09-14T03:48:20.411Z,14.50
2018-09-14T03:50:48.963Z,14.50
2018-09-14T03:53:17.511Z,14.50
2018-09-14T03:55:46.050Z,14.50
2018-09-14T03:58:14.612Z,14.50
2018-09-14T04:00:43.176Z,14.50
2018-09-14T04:03:11.699Z,14.50
2018-09-14T04:05:40.257Z,14.50
2018-09-14T04:08:08.811Z,14.50
2018-09-14T04:10:37.327Z,14.50
2018-09-14T04:13:06.036Z,14.40
2018-09-14T04:15:34.568Z,14.50
2018-09-14T04:18:03.124Z,14.40
2018-09-14T04:20:31.645Z,14.50
2018-09-14T04:23:00.186Z,14.40
2018-09-14T04:25:28.694Z,14.50
2018-09-14T04:27:57.253Z,14.40
2018-09-14T04:30:25.776Z,14.40
2018-09-14T04:32:54.335Z,14.40
2018-09-14T04:35:22.875Z,14.40
2018-09-14T04:37:51.438Z,14.50
2018-09-14T04:40:19.950Z,14.40
2018-09-14T04:42:48.476Z,14.40
2018-09-14T04:45:16.989Z,14.50
2018-09-14T04:47:45.524Z,14.40
2018-09-14T04:50:14.059Z,14.50
2018-09-14T04:52:42.591Z,14.50
2018-09-14T04:55:11.127Z,14.50
2018-09-14T04:57:39.671Z,14.50
2018-09-14T05:00:08.248Z,14.50
2018-09-14T05:02:36.764Z,14.50
2018-09-14T05:05:05.330Z,14.50
2018-09-14T05:07:33.906Z,14.50
2018-09-14T05:10:02.944Z,14.50
2018-09-14T05:12:31.523Z,14.50
2018-09-14T05:15:00.044Z,14.50
2018-09-14T05:17:28.617Z,14.50
2018-09-14T05:19:57.141Z,14.50
2018-09-14T05:22:25.704Z,14.50
2018-09-14T05:24:54.295Z,14.50
2018-09-14T05:27:22.840Z,14.50
2018-09-14T05:29:51.416Z,14.50
2018-09-14T05:32:19.956Z,14.50
2018-09-14T05:34:48.527Z,14.50
2018-09-14T05:37:17.083Z,14.50
2018-09-14T05:39:45.682Z,14.50
2018-09-14T05:42:14.234Z,14.50
2018-09-14T05:44:42.783Z,14.50
2018-09-14T05:47:11.327Z,14.50
2018-09-14T05:49:39.906Z,14.60
2018-09-14T05:52:08.467Z,14.60
2018-09-14T05:54:37.065Z,14.60
2018-09-14T05:57:05.694Z,14.60
2018-09-14T05:59:34.257Z,14.70
2018-09-14T06:02:02.823Z,14.70
2018-09-14T06:04:31.396Z,14.80
2018-09-14T06:06:59.979Z,14.80
2018-09-14T06:09:28.563Z,14.80
2018-09-14T06:11:57.103Z,14.90
2018-09-14T06:14:25.662Z,14.90
2018-09-14T06:16:54.855Z,15.00
2018-09-14T06:19:23.646Z,15.00
2018-09-14T06:21:52.177Z,15.00
2018-09-14T06:24:20.748Z,15.10
2018-09-14T06:26:49.308Z,15.10
2018-09-14T06:29:17.903Z,15.20
2018-09-14T06:31:46.427Z,15.20
2018-09-14T06:34:14.988Z,15.20
2018-09-14T06:36:43.530Z,15.30
2018-09-14T06:39:12.825Z,15.30
2018-09-14T06:41:41.395Z,15.40
2018-09-14T06:44:10.316Z,15.40
2018-09-14T06:46:38.840Z,15.40
2018-09-14T06:49:07.420Z,15.40
2018-09-14T06:51:37.540Z,15.50
2018-09-14T06:54:06.206Z,15.50
2018-09-14T06:56:34.788Z,15.50
2018-09-14T06:59:03.387Z,15.60
2018-09-14T07:01:31.915Z,15.60
2018-09-14T07:04:00.812Z,15.60
2018-09-14T07:06:29.486Z,15.60
2018-09-14T07:08:58.016Z,15.70
2018-09-14T07:11:26.538Z,15.70
2018-09-14T07:13:55.189Z,15.80
2018-09-14T07:16:23.782Z,15.80
2018-09-14T07:18:52.353Z,15.90
2018-09-14T07:21:21.011Z,16.00
2018-09-14T07:23:49.559Z,16.10
2018-09-14T07:26:18.111Z,16.20
2018-09-14T07:28:46.677Z,16.30
2018-09-14T07:31:15.247Z,16.40
2018-09-14T07:33:44.099Z,16.50
2018-09-14T07:36:12.959Z,16.50
2018-09-14T07:38:41.943Z,16.60
2018-09-14T07:41:10.464Z,16.70
2018-09-14T07:43:38.999Z,16.70
2018-09-14T07:46:07.527Z,16.90
2018-09-14T07:48:36.077Z,16.90
2018-09-14T07:51:04.559Z,16.90
2018-09-14T07:53:33.103Z,17.00
2018-09-14T07:56:01.636Z,17.00
2018-09-14T07:58:30.187Z,17.10
2018-09-14T08:00:58.728Z,17.10
2018-09-14T08:03:27.245Z,17.10
2018-09-14T08:05:55.759Z,17.10
2018-09-14T08:08:24.257Z,17.20
2018-09-14T08:10:52.795Z,17.10
2018-09-14T08:13:21.353Z,17.10
2018-09-14T08:15:50.088Z,17.20
2018-09-14T08:18:18.561Z,17.30
2018-09-14T08:20:47.659Z,17.30
2018-09-14T08:23:16.150Z,17.40
2018-09-14T08:25:44.668Z,17.60
2018-09-14T08:28:13.195Z,17.80
2018-09-14T08:30:41.699Z,17.90
2018-09-14T08:33:10.179Z,17.90
2018-09-14T08:35:38.686Z,18.10
2018-09-14T08:38:07.256Z,18.20
2018-09-14T08:40:35.767Z,18.20
2018-09-14T08:43:04.581Z,18.30
2018-09-14T08:45:33.072Z,18.40
2018-09-14T08:48:01.639Z,18.50
2018-09-14T08:50:30.089Z,18.60
2018-09-14T08:52:58.595Z,18.70
2018-09-14T08:55:27.107Z,18.80
2018-09-14T08:57:55.620Z,18.90
2018-09-14T09:00:24.691Z,18.90
2018-09-14T09:02:54.203Z,18.90
2018-09-14T09:05:23.740Z,18.90
2018-09-14T09:07:52.240Z,18.90
2018-09-14T09:10:20.783Z,18.60
2018-09-14T09:12:49.450Z,18.40
2018-09-14T09:15:18.034Z,18.20
2018-09-14T09:17:46.617Z,17.90
2018-09-14T09:20:15.060Z,17.80
2018-09-14T09:22:43.575Z,17.80
2018-09-14T09:25:12.088Z,17.90
2018-09-14T09:27:40.601Z,18.10
2018-09-14T09:30:09.123Z,18.90
2018-09-14T09:32:37.643Z,20.70
2018-09-14T09:35:06.358Z,21.80
2018-09-14T09:37:35.176Z,21.90
2018-09-14T09:40:03.778Z,22.10
2018-09-14T09:42:32.659Z,21.80
2018-09-14T09:45:01.235Z,21.00
2018-09-14T09:47:29.775Z,20.60
2018-09-14T09:49:58.359Z,20.30
2018-09-14T09:52:26.887Z,20.10
2018-09-14T09:54:55.447Z,19.70
2018-09-14T09:57:24.024Z,19.50
2018-09-14T09:59:52.555Z,19.40
2018-09-14T10:02:26.482Z,19.20
2018-09-14T10:05:00.414Z,19.00
2018-09-14T10:07:28.999Z,18.80
2018-09-14T10:09:57.544Z,18.70
2018-09-14T10:12:26.097Z,18.50
2018-09-14T10:14:54.668Z,18.50
2018-09-14T10:17:23.226Z,18.40
2018-09-14T10:19:51.755Z,18.40
2018-09-14T10:22:20.300Z,18.50
2018-09-14T10:24:48.845Z,18.70
2018-09-14T10:27:17.404Z,18.90
2018-09-14T10:29:45.942Z,19.20
2018-09-14T10:32:14.497Z,20.20
2018-09-14T10:34:43.072Z,21.30
2018-09-14T10:37:11.612Z,22.40
2018-09-14T10:39:40.124Z,23.30
2018-09-14T10:42:08.660Z,24.40
2018-09-14T10:44:37.173Z,26.50
2018-09-14T10:47:05.703Z,27.70
2018-09-14T10:49:34.235Z,28.10
2018-09-14T10:52:03.039Z,28.90
2018-09-14T10:54:31.667Z,28.80
2018-09-14T10:57:00.196Z,27.80
2018-09-14T10:59:28.743Z,26.60
2018-09-14T11:01:57.289Z,24.80
2018-09-14T11:04:25.903Z,23.60
2018-09-14T11:06:54.471Z,22.60
2018-09-14T11:09:22.994Z,22.00
2018-09-14T11:11:51.604Z,21.20
2018-09-14T11:14:21.129Z,20.80
2018-09-14T11:16:49.677Z,20.20
2018-09-14T11:19:18.196Z,19.80
2018-09-14T11:21:46.752Z,19.50
2018-09-14T11:24:15.295Z,19.50
2018-09-14T11:26:43.876Z,19.40
2018-09-14T11:29:12.408Z,19.30
2018-09-14T11:31:41.000Z,19.30
2018-09-14T11:34:09.567Z,19.10
2018-09-14T11:36:38.089Z,19.10
2018-09-14T11:39:08.577Z,18.90
2018-09-14T11:41:37.100Z,18.80
2018-09-14T11:44:05.612Z,18.80
2018-09-14T11:46:34.151Z,18.80
2018-09-14T11:49:02.647Z,19.00
2018-09-14T11:51:31.160Z,19.30
2018-09-14T11:53:59.796Z,20.00
2018-09-14T11:56:28.323Z,20.40
2018-09-14T11:58:56.835Z,20.60
2018-09-14T12:01:25.460Z,20.60
2018-09-14T12:03:53.967Z,20.50
2018-09-14T12:06:22.500Z,20.20
2018-09-14T12:08:51.046Z,19.90
2018-09-14T12:11:19.558Z,19.70
2018-09-14T12:13:48.141Z,19.70
2018-09-14T12:16:16.642Z,19.50
2018-09-14T12:18:45.188Z,19.30
2018-09-14T12:21:13.716Z,19.20
2018-09-14T12:23:42.247Z,19.10
2018-09-14T12:26:10.757Z,18.90
2018-09-14T12:28:39.311Z,18.80
2018-09-14T12:31:07.811Z,18.80
2018-09-14T12:33:36.413Z,19.70
2018-09-14T12:36:05.131Z,21.90
2018-09-14T12:38:33.898Z,24.20
2018-09-14T12:41:02.415Z,26.00
2018-09-14T12:43:30.945Z,27.20
2018-09-14T12:45:59.482Z,28.40
2018-09-14T12:48:28.022Z,27.90
2018-09-14T12:50:56.559Z,26.70
2018-09-14T12:53:25.167Z,25.30
2018-09-14T12:55:53.731Z,24.20
2018-09-14T12:58:22.348Z,23.70
2018-09-14T13:00:50.952Z,23.30
2018-09-14T13:03:19.538Z,22.90
2018-09-14T13:05:48.183Z,22.30
2018-09-14T13:08:16.772Z,21.90
2018-09-14T13:10:45.335Z,21.50
2018-09-14T13:13:13.924Z,21.50
2018-09-14T13:15:42.476Z,21.80
2018-09-14T13:18:10.994Z,22.10
2018-09-14T13:20:39.495Z,23.00
2018-09-14T13:23:08.343Z,24.40
2018-09-14T13:25:36.856Z,25.50
2018-09-14T13:28:05.435Z,25.60
2018-09-14T13:30:34.428Z,25.60
2018-09-14T13:33:04.123Z,26.50
2018-09-14T13:35:32.653Z,27.40
2018-09-14T13:38:01.339Z,27.90
2018-09-14T13:40:30.179Z,27.20
2018-09-14T13:42:58.756Z,26.20
2018-09-14T13:45:27.673Z,25.70
2018-09-14T13:47:56.655Z,25.30
2018-09-14T13:50:25.653Z,25.30
2018-09-14T13:52:54.310Z,25.90
2018-09-14T13:55:22.793Z,26.20
2018-09-14T13:57:51.437Z,26.70
2018-09-14T14:00:20.268Z,27.50
2018-09-14T14:02:49.543Z,27.20
2018-09-14T14:05:18.495Z,27.60
2018-09-14T14:07:47.128Z,28.20
2018-09-14T14:10:15.657Z,28.60
2018-09-14T14:12:44.540Z,28.10
2018-09-14T14:15:13.276Z,27.90
2018-09-14T14:17:42.174Z,27.50
2018-09-14T14:20:10.889Z,27.00
2018-09-14T14:22:39.742Z,27.10
2018-09-14T14:25:08.720Z,27.00
2018-09-14T14:27:38.018Z,26.30
2018-09-14T14:30:06.561Z,25.40
2018-09-14T14:32:35.360Z,24.80
2018-09-14T14:35:04.149Z,24.20
2018-09-14T14:37:33.316Z,23.90
2018-09-14T14:40:01.995Z,23.30
2018-09-14T14:42:31.040Z,22.90
2018-09-14T14:44:59.667Z,22.40
2018-09-14T14:47:28.355Z,22.40
2018-09-14T14:49:56.932Z,22.40
2018-09-14T14:52:26.577Z,22.20
2018-09-14T14:54:55.581Z,22.00
2018-09-14T14:57:24.406Z,21.70
2018-09-14T14:59:53.509Z,21.50
2018-09-14T15:02:22.366Z,21.40
2018-09-14T15:04:51.293Z,21.30
2018-09-14T15:07:20.380Z,21.00
2018-09-14T15:09:49.342Z,20.90
2018-09-14T15:12:17.889Z,20.60
2018-09-14T15:14:46.964Z,20.50
2018-09-14T15:17:15.749Z,20.50
2018-09-14T15:19:44.747Z,20.40
2018-09-14T15:22:13.445Z,20.30
2018-09-14T15:24:42.206Z,20.40
2018-09-14T15:27:11.065Z,20.50
2018-09-14T15:29:39.951Z,20.60
2018-09-14T15:32:08.685Z,20.60
2018-09-14T15:34:37.261Z,20.60
2018-09-14T15:37:05.988Z,20.50
2018-09-14T15:39:34.608Z,20.30
2018-09-14T15:42:03.184Z,20.10
2018-09-14T15:44:32.644Z,20.20
2018-09-14T15:47:01.258Z,20.10
2018-09-14T15:49:29.985Z,20.10
2018-09-14T15:51:58.461Z,20.20
2018-09-14T15:54:27.020Z,20.10
2018-09-14T15:56:55.540Z,20.10
2018-09-14T15:59:24.124Z,20.00
2018-09-14T16:01:52.676Z,20.00
2018-09-14T16:04:21.293Z,20.00
2018-09-14T16:06:49.830Z,20.00
2018-09-14T16:09:18.364Z,19.90
2018-09-14T16:11:46.891Z,19.90
2018-09-14T16:14:15.417Z,19.90
2018-09-14T16:16:43.962Z,20.00
2018-09-14T16:19:12.518Z,20.00
2018-09-14T16:21:41.091Z,20.00
2018-09-14T16:24:09.706Z,20.00
2018-09-14T16:26:38.303Z,20.00
2018-09-14T16:29:07.088Z,19.90
2018-09-14T16:31:35.726Z,19.80
2018-09-14T16:34:04.281Z,19.50
2018-09-14T16:36:32.844Z,19.30
2018-09-14T16:39:01.399Z,19.20
2018-09-14T16:41:30.004Z,19.10
2018-09-14T16:43:58.559Z,19.00
2018-09-14T16:46:28.050Z,18.90
2018-09-14T16:48:56.615Z,18.70
2018-09-14T16:51:25.347Z,18.60
2018-09-14T16:53:53.887Z,18.50
2018-09-14T16:56:22.559Z,18.40
2018-09-14T16:58:51.071Z,18.40
2018-09-14T17:01:19.661Z,18.40
2018-09-14T17:03:48.182Z,18.30
2018-09-14T17:06:16.713Z,18.30
2018-09-14T17:08:45.222Z,18.20
2018-09-14T17:11:13.764Z,18.20
2018-09-14T17:13:42.638Z,18.10
2018-09-14T17:16:11.198Z,18.00
2018-09-14T17:18:39.716Z,18.00
2018-09-14T17:21:08.246Z,17.90
2018-09-14T17:23:36.782Z,17.90
2018-09-14T17:26:05.291Z,17.80
2018-09-14T17:28:33.771Z,17.80
2018-09-14T17:31:02.308Z,17.70
2018-09-14T17:33:30.839Z,17.70
2018-09-14T17:35:59.384Z,17.70
2018-09-14T17:38:28.079Z,17.60
2018-09-14T17:40:56.631Z,17.50
2018-09-14T17:43:25.175Z,17.50
2018-09-14T17:45:53.688Z,17.40
2018-09-14T17:48:22.261Z,17.30
2018-09-14T17:50:50.859Z,17.20
2018-09-14T17:53:19.391Z,17.20
2018-09-14T17:55:47.944Z,17.10
2018-09-14T17:58:16.488Z,17.10
2018-09-14T18:00:45.104Z,17.00
2018-09-14T18:03:13.722Z,17.00
2018-09-14T18:05:42.377Z,16.90
2018-09-14T18:08:10.931Z,16.90
2018-09-14T18:10:39.476Z,16.80
2018-09-14T18:13:07.999Z,16.80
2018-09-14T18:15:36.569Z,16.80
2018-09-14T18:18:05.578Z,16.80
2018-09-14T18:20:34.134Z,16.80
2018-09-14T18:23:02.699Z,16.80
2018-09-14T18:25:31.232Z,16.80
2018-09-14T18:27:59.838Z,16.80
2018-09-14T18:30:28.348Z,16.80
2018-09-14T18:32:56.878Z,16.80
2018-09-14T18:35:25.424Z,16.90
2018-09-14T18:37:53.962Z,16.90
2018-09-14T18:40:22.479Z,16.90
2018-09-14T18:42:51.035Z,16.90
2018-09-14T18:45:19.841Z,16.90
2018-09-14T18:47:48.399Z,16.90
2018-09-14T18:50:16.976Z,16.90
2018-09-14T18:52:45.552Z,16.90
2018-09-14T18:55:14.080Z,16.90
2018-09-14T18:57:42.647Z,16.80
2018-09-14T19:00:11.228Z,16.80
2018-09-14T19:02:39.762Z,16.80
2018-09-14T19:05:09.299Z,16.70
2018-09-14T19:07:37.853Z,16.70
2018-09-14T19:10:06.431Z,16.70
2018-09-14T19:12:35.008Z,16.60
2018-09-14T19:15:03.539Z,16.60
2018-09-14T19:17:32.075Z,16.60
2018-09-14T19:20:00.621Z,16.60
2018-09-14T19:22:29.166Z,16.60
2018-09-14T19:24:57.682Z,16.50
2018-09-14T19:27:26.215Z,16.50
2018-09-14T19:29:54.731Z,16.50
2018-09-14T19:32:23.616Z,16.50
2018-09-14T19:34:52.184Z,16.40
2018-09-14T19:37:21.180Z,16.40
2018-09-14T19:39:49.706Z,16.40
2018-09-14T19:42:18.219Z,16.40
2018-09-14T19:44:46.756Z,16.30
2018-09-14T19:47:15.318Z,16.30
2018-09-14T19:49:43.814Z,16.30
2018-09-14T19:52:12.343Z,16.20
2018-09-14T19:54:40.889Z,16.20
2018-09-14T19:57:09.420Z,16.20
2018-09-14T19:59:37.915Z,16.10
2018-09-14T20:02:06.451Z,16.10
2018-09-14T20:04:34.967Z,16.10
2018-09-14T20:07:03.527Z,16.10
2018-09-14T20:09:32.074Z,16.00
2018-09-14T20:12:00.588Z,16.10
2018-09-14T20:14:29.083Z,16.00
2018-09-14T20:16:57.575Z,16.00
2018-09-14T20:19:26.066Z,16.00
2018-09-14T20:21:54.545Z,16.00
2018-09-14T20:24:24.446Z,16.00
2018-09-14T20:26:52.952Z,16.00
2018-09-14T20:29:21.446Z,16.00
2018-09-14T20:31:49.933Z,16.00
2018-09-14T20:34:18.486Z,16.00
2018-09-14T20:36:47.007Z,16.00
2018-09-14T20:39:15.826Z,15.90
2018-09-14T20:41:44.360Z,15.90
2018-09-14T20:44:12.910Z,15.90
2018-09-14T20:46:41.463Z,15.90
2018-09-14T20:49:09.995Z,15.90
2018-09-14T20:51:38.520Z,15.90
2018-09-14T20:54:07.087Z,15.90
2018-09-14T20:56:35.620Z,15.90
2018-09-14T20:59:04.190Z,15.90
2018-09-14T21:01:32.699Z,15.90
2018-09-14T21:04:01.252Z,15.90
2018-09-14T21:06:29.772Z,15.90
2018-09-14T21:08:58.600Z,15.90
2018-09-14T21:11:27.142Z,15.90
2018-09-14T21:13:55.696Z,15.90
2018-09-14T21:16:24.204Z,15.90
2018-09-14T21:18:52.741Z,16.80
2018-09-14T21:21:21.264Z,15.90
2018-09-14T21:23:49.804Z,15.80
2018-09-14T21:26:18.343Z,15.80
2018-09-14T21:28:46.892Z,15.80
2018-09-14T21:31:15.407Z,15.70
2018-09-14T21:33:44.011Z,15.70
2018-09-14T21:36:12.434Z,15.70
2018-09-14T21:38:40.935Z,15.70
2018-09-14T21:41:09.596Z,15.70
2018-09-14T21:43:38.126Z,15.70
2018-09-14T21:46:06.595Z,15.70
2018-09-14T21:48:35.117Z,15.60
2018-09-14T21:51:03.675Z,15.60
2018-09-14T21:53:32.233Z,15.60
2018-09-14T21:56:00.739Z,15.60
2018-09-14T21:58:29.308Z,15.60
2018-09-14T22:01:03.059Z,15.60
2018-09-14T22:03:31.581Z,15.50
2018-09-14T22:06:00.107Z,15.50
2018-09-14T22:08:28.599Z,15.50
2018-09-14T22:10:57.098Z,15.40
2018-09-14T22:13:25.626Z,15.40
2018-09-14T22:15:54.095Z,15.40
2018-09-14T22:18:22.593Z,15.40
2018-09-14T22:20:51.119Z,15.40
2018-09-14T22:23:19.619Z,15.40
2018-09-14T22:25:48.134Z,15.40
2018-09-14T22:28:16.646Z,15.30
2018-09-14T22:30:45.189Z,15.30
2018-09-14T22:33:13.704Z,15.30
2018-09-14T22:35:42.263Z,15.30
2018-09-14T22:38:10.783Z,15.30
2018-09-14T22:40:39.327Z,15.30
2018-09-14T22:43:07.968Z,15.30
2018-09-14T22:45:36.528Z,15.30
2018-09-14T22:48:05.072Z,15.20
2018-09-14T22:50:33.607Z,15.20
2018-09-14T22:53:02.185Z,15.10
2018-09-14T22:55:30.731Z,15.10
2018-09-14T22:57:59.235Z,15.10
2018-09-14T23:00:33.186Z,15.00
2018-09-14T23:03:01.748Z,14.90
2018-09-14T23:05:30.291Z,14.80
2018-09-14T23:07:58.867Z,14.80
2018-09-14T23:10:27.457Z,14.70
2018-09-14T23:12:55.919Z,14.60
2018-09-14T23:15:24.414Z,14.60
2018-09-14T23:17:52.906Z,14.50
2018-09-14T23:20:21.371Z,14.50
2018-09-14T23:22:49.815Z,14.40
2018-09-14T23:25:18.293Z,14.40
2018-09-14T23:27:46.776Z,14.30
2018-09-14T23:30:15.250Z,14.30
2018-09-14T23:32:43.740Z,14.20
2018-09-14T23:35:36.239Z,14.20
2018-09-14T23:38:04.719Z,14.20
2018-09-14T23:40:33.210Z,14.20
2018-09-14T23:43:01.665Z,14.20
2018-09-14T23:45:30.159Z,14.20
2018-09-14T23:47:58.626Z,14.20
2018-09-14T23:50:27.138Z,14.20
2018-09-14T23:52:55.603Z,14.30
2018-09-14T23:55:24.111Z,14.30
2018-09-14T23:57:52.615Z,14.30
